sensor_id;sensor_type;location;lat;lon;timestamp;temperature;humidity
60309;DHT22;50313;52.894;6.492;2022-10-17T00:01:05;12.10;99.90
60309;DHT22;50313;52.894;6.492;2022-10-17T00:03:33;12.10;99.90
60309;DHT22;50313;52.894;6.492;2022-10-17T00:06:03;12.20;99.90
60309;DHT22;50313;52.894;6.492;2022-10-17T00:08:29;12.20;99.90
60309;DHT22;50313;52.894;6.492;2022-10-17T00:10:57;12.30;99.90
60309;DHT22;50313;52.894;6.492;2022-10-17T00:13:24;12.30;99.90
60309;DHT22;50313;52.894;6.492;2022-10-17T00:15:49;12.40;99.90
60309;DHT22;50313;52.894;6.492;2022-10-17T00:18:15;12.40;99.90
60309;DHT22;50313;52.894;6.492;2022-10-17T00:20:41;12.40;99.90
60309;DHT22;50313;52.894;6.492;2022-10-17T00:23:06;12.50;99.90
60309;DHT22;50313;52.894;6.492;2022-10-17T00:25:32;12.50;99.90
60309;DHT22;50313;52.894;6.492;2022-10-17T00:27:58;12.50;99.90
60309;DHT22;50313;52.894;6.492;2022-10-17T00:30:24;12.50;99.90
60309;DHT22;50313;52.894;6.492;2022-10-17T00:32:50;12.60;99.90
60309;DHT22;50313;52.894;6.492;2022-10-17T00:35:15;12.50;99.90
60309;DHT22;50313;52.894;6.492;2022-10-17T00:37:41;12.60;99.90
60309;DHT22;50313;52.894;6.492;2022-10-17T00:40:08;12.60;99.90
60309;DHT22;50313;52.894;6.492;2022-10-17T00:42:34;12.60;99.90
60309;DHT22;50313;52.894;6.492;2022-10-17T00:47:42;12.70;99.90
60309;DHT22;50313;52.894;6.492;2022-10-17T00:50:09;12.70;99.90
60309;DHT22;50313;52.894;6.492;2022-10-17T00:52:36;12.70;99.90
60309;DHT22;50313;52.894;6.492;2022-10-17T00:55:09;12.70;99.90
60309;DHT22;50313;52.894;6.492;2022-10-17T00:57:35;12.70;99.90
60309;DHT22;50313;52.894;6.492;2022-10-17T01:00:04;12.70;99.90
60309;DHT22;50313;52.894;6.492;2022-10-17T01:02:30;12.70;99.90
60309;DHT22;50313;52.894;6.492;2022-10-17T01:04:56;12.70;99.90
60309;DHT22;50313;52.894;6.492;2022-10-17T01:07:24;12.80;99.90
60309;DHT22;50313;52.894;6.492;2022-10-17T01:09:52;12.80;99.90
60309;DHT22;50313;52.894;6.492;2022-10-17T01:12:28;12.80;99.90
60309;DHT22;50313;52.894;6.492;2022-10-17T01:15:03;12.80;99.90
60309;DHT22;50313;52.894;6.492;2022-10-17T01:26:03;12.90;99.90
60309;DHT22;50313;52.894;6.492;2022-10-17T01:31:22;12.90;99.90
60309;DHT22;50313;52.894;6.492;2022-10-17T01:36:53;12.80;99.90
60309;DHT22;50313;52.894;6.492;2022-10-17T01:39:30;12.80;99.90
60309;DHT22;50313;52.894;6.492;2022-10-17T01:42:09;12.80;99.90
60309;DHT22;50313;52.894;6.492;2022-10-17T01:47:16;12.70;99.90
60309;DHT22;50313;52.894;6.492;2022-10-17T01:49:44;12.70;99.90
60309;DHT22;50313;52.894;6.492;2022-10-17T01:52:16;12.70;99.90
60309;DHT22;50313;52.894;6.492;2022-10-17T01:54:56;12.70;99.90
60309;DHT22;50313;52.894;6.492;2022-10-17T01:57:31;12.70;99.90
60309;DHT22;50313;52.894;6.492;2022-10-17T01:59:58;12.70;99.90
60309;DHT22;50313;52.894;6.492;2022-10-17T02:02:25;12.70;99.90
60309;DHT22;50313;52.894;6.492;2022-10-17T02:04:53;12.70;99.90
60309;DHT22;50313;52.894;6.492;2022-10-17T02:07:19;12.60;99.90
60309;DHT22;50313;52.894;6.492;2022-10-17T02:09:45;12.60;99.90
60309;DHT22;50313;52.894;6.492;2022-10-17T02:20:57;12.50;99.90
60309;DHT22;50313;52.894;6.492;2022-10-17T02:24:08;12.50;99.90
60309;DHT22;50313;52.894;6.492;2022-10-17T02:26:44;12.50;99.90
60309;DHT22;50313;52.894;6.492;2022-10-17T02:29:16;12.50;99.90
60309;DHT22;50313;52.894;6.492;2022-10-17T02:32:00;12.50;99.90
60309;DHT22;50313;52.894;6.492;2022-10-17T02:37:04;12.40;99.90
60309;DHT22;50313;52.894;6.492;2022-10-17T02:39:32;12.40;99.90
60309;DHT22;50313;52.894;6.492;2022-10-17T02:42:04;12.40;99.90
60309;DHT22;50313;52.894;6.492;2022-10-17T02:44:31;12.40;99.90
60309;DHT22;50313;52.894;6.492;2022-10-17T02:49:49;12.40;99.90
60309;DHT22;50313;52.894;6.492;2022-10-17T02:52:44;12.40;99.90
60309;DHT22;50313;52.894;6.492;2022-10-17T02:55:18;12.40;99.90
60309;DHT22;50313;52.894;6.492;2022-10-17T02:57:59;12.40;99.90
60309;DHT22;50313;52.894;6.492;2022-10-17T03:00:28;12.40;99.90
60309;DHT22;50313;52.894;6.492;2022-10-17T03:02:54;12.40;99.90
60309;DHT22;50313;52.894;6.492;2022-10-17T03:05:28;12.40;99.90
60309;DHT22;50313;52.894;6.492;2022-10-17T03:07:54;12.40;99.90
60309;DHT22;50313;52.894;6.492;2022-10-17T03:10:22;12.40;99.90
60309;DHT22;50313;52.894;6.492;2022-10-17T03:12:47;12.50;99.90
60309;DHT22;50313;52.894;6.492;2022-10-17T03:15:14;12.50;99.90
60309;DHT22;50313;52.894;6.492;2022-10-17T03:17:39;12.50;99.90
60309;DHT22;50313;52.894;6.492;2022-10-17T03:20:06;12.50;99.90
60309;DHT22;50313;52.894;6.492;2022-10-17T03:22:31;12.60;99.90
60309;DHT22;50313;52.894;6.492;2022-10-17T03:24:58;12.60;99.90
60309;DHT22;50313;52.894;6.492;2022-10-17T03:27:23;12.60;99.90
60309;DHT22;50313;52.894;6.492;2022-10-17T03:29:49;12.60;99.90
60309;DHT22;50313;52.894;6.492;2022-10-17T03:32:15;12.70;99.90
60309;DHT22;50313;52.894;6.492;2022-10-17T03:34:41;12.60;99.90
60309;DHT22;50313;52.894;6.492;2022-10-17T03:37:07;12.60;99.90
60309;DHT22;50313;52.894;6.492;2022-10-17T03:39:32;12.60;99.90
60309;DHT22;50313;52.894;6.492;2022-10-17T03:41:58;12.60;99.90
60309;DHT22;50313;52.894;6.492;2022-10-17T03:44:24;12.60;99.90
60309;DHT22;50313;52.894;6.492;2022-10-17T03:46:50;12.60;99.90
60309;DHT22;50313;52.894;6.492;2022-10-17T03:49:16;12.70;99.90
60309;DHT22;50313;52.894;6.492;2022-10-17T03:51:41;12.70;99.90
60309;DHT22;50313;52.894;6.492;2022-10-17T03:54:07;12.70;99.90
60309;DHT22;50313;52.894;6.492;2022-10-17T03:56:33;12.70;99.90
60309;DHT22;50313;52.894;6.492;2022-10-17T03:58:58;12.80;99.90
60309;DHT22;50313;52.894;6.492;2022-10-17T04:01:24;12.80;99.90
60309;DHT22;50313;52.894;6.492;2022-10-17T04:03:52;12.80;99.90
60309;DHT22;50313;52.894;6.492;2022-10-17T04:06:19;12.80;99.90
60309;DHT22;50313;52.894;6.492;2022-10-17T04:08:45;12.80;99.90
60309;DHT22;50313;52.894;6.492;2022-10-17T04:11:17;12.80;99.90
60309;DHT22;50313;52.894;6.492;2022-10-17T04:13:43;12.80;99.90
60309;DHT22;50313;52.894;6.492;2022-10-17T04:16:14;12.90;99.90
60309;DHT22;50313;52.894;6.492;2022-10-17T04:18:41;12.90;99.90
60309;DHT22;50313;52.894;6.492;2022-10-17T04:21:07;12.90;99.90
60309;DHT22;50313;52.894;6.492;2022-10-17T04:23:34;12.90;99.90
60309;DHT22;50313;52.894;6.492;2022-10-17T04:26:00;12.90;99.90
60309;DHT22;50313;52.894;6.492;2022-10-17T04:28:28;12.90;99.90
60309;DHT22;50313;52.894;6.492;2022-10-17T04:30:58;13.00;99.90
60309;DHT22;50313;52.894;6.492;2022-10-17T04:33:24;13.00;99.90
60309;DHT22;50313;52.894;6.492;2022-10-17T04:36:02;13.10;99.90
60309;DHT22;50313;52.894;6.492;2022-10-17T04:38:28;13.10;99.90
60309;DHT22;50313;52.894;6.492;2022-10-17T04:40:58;13.10;99.90
60309;DHT22;50313;52.894;6.492;2022-10-17T04:43:28;13.20;99.90
60309;DHT22;50313;52.894;6.492;2022-10-17T04:45:55;13.20;99.90
60309;DHT22;50313;52.894;6.492;2022-10-17T04:48:21;13.20;99.90
60309;DHT22;50313;52.894;6.492;2022-10-17T04:51:07;13.20;99.90
60309;DHT22;50313;52.894;6.492;2022-10-17T04:53:34;13.30;99.90
60309;DHT22;50313;52.894;6.492;2022-10-17T04:56:01;13.30;99.90
60309;DHT22;50313;52.894;6.492;2022-10-17T04:58:31;13.30;99.90
60309;DHT22;50313;52.894;6.492;2022-10-17T05:00:57;13.30;99.90
60309;DHT22;50313;52.894;6.492;2022-10-17T05:03:22;13.30;99.90
60309;DHT22;50313;52.894;6.492;2022-10-17T05:05:48;13.30;99.90
60309;DHT22;50313;52.894;6.492;2022-10-17T05:08:20;13.30;99.90
60309;DHT22;50313;52.894;6.492;2022-10-17T05:10:46;13.30;99.90
60309;DHT22;50313;52.894;6.492;2022-10-17T05:13:11;13.30;99.90
60309;DHT22;50313;52.894;6.492;2022-10-17T05:15:38;13.40;99.90
60309;DHT22;50313;52.894;6.492;2022-10-17T05:18:04;13.50;99.90
60309;DHT22;50313;52.894;6.492;2022-10-17T05:20:30;13.50;99.90
60309;DHT22;50313;52.894;6.492;2022-10-17T05:23:00;13.50;99.90
60309;DHT22;50313;52.894;6.492;2022-10-17T05:25:25;13.50;99.90
60309;DHT22;50313;52.894;6.492;2022-10-17T05:27:51;13.50;99.90
60309;DHT22;50313;52.894;6.492;2022-10-17T05:30:17;13.50;99.90
60309;DHT22;50313;52.894;6.492;2022-10-17T05:32:43;13.50;99.90
60309;DHT22;50313;52.894;6.492;2022-10-17T05:35:09;13.60;99.90
60309;DHT22;50313;52.894;6.492;2022-10-17T05:37:35;13.60;99.90
60309;DHT22;50313;52.894;6.492;2022-10-17T05:40:00;13.70;99.90
60309;DHT22;50313;52.894;6.492;2022-10-17T05:42:26;13.80;99.90
60309;DHT22;50313;52.894;6.492;2022-10-17T05:44:52;13.70;99.90
60309;DHT22;50313;52.894;6.492;2022-10-17T05:47:18;13.70;99.90
60309;DHT22;50313;52.894;6.492;2022-10-17T05:49:43;13.60;99.90
60309;DHT22;50313;52.894;6.492;2022-10-17T05:52:09;13.70;99.90
60309;DHT22;50313;52.894;6.492;2022-10-17T05:54:35;13.70;99.90
60309;DHT22;50313;52.894;6.492;2022-10-17T05:57:01;13.80;99.90
60309;DHT22;50313;52.894;6.492;2022-10-17T05:59:27;13.90;99.90
60309;DHT22;50313;52.894;6.492;2022-10-17T06:01:53;14.00;99.90
60309;DHT22;50313;52.894;6.492;2022-10-17T06:04:18;14.10;99.90
60309;DHT22;50313;52.894;6.492;2022-10-17T06:06:44;14.20;99.90
60309;DHT22;50313;52.894;6.492;2022-10-17T06:09:10;14.30;99.90
60309;DHT22;50313;52.894;6.492;2022-10-17T06:11:36;14.40;99.90
60309;DHT22;50313;52.894;6.492;2022-10-17T06:14:02;14.50;99.90
60309;DHT22;50313;52.894;6.492;2022-10-17T06:16:28;14.50;99.90
60309;DHT22;50313;52.894;6.492;2022-10-17T06:18:54;14.70;99.90
60309;DHT22;50313;52.894;6.492;2022-10-17T06:21:22;14.60;99.90
60309;DHT22;50313;52.894;6.492;2022-10-17T06:23:48;14.70;99.90
60309;DHT22;50313;52.894;6.492;2022-10-17T06:26:14;14.80;99.90
60309;DHT22;50313;52.894;6.492;2022-10-17T06:28:40;14.80;99.90
60309;DHT22;50313;52.894;6.492;2022-10-17T06:31:08;14.90;99.90
60309;DHT22;50313;52.894;6.492;2022-10-17T06:33:34;15.00;99.90
60309;DHT22;50313;52.894;6.492;2022-10-17T06:36:00;14.90;99.90
60309;DHT22;50313;52.894;6.492;2022-10-17T06:38:26;14.90;99.90
60309;DHT22;50313;52.894;6.492;2022-10-17T06:40:51;14.90;99.90
60309;DHT22;50313;52.894;6.492;2022-10-17T06:43:19;14.90;99.90
60309;DHT22;50313;52.894;6.492;2022-10-17T06:45:45;14.90;99.90
60309;DHT22;50313;52.894;6.492;2022-10-17T06:48:12;14.90;99.90
60309;DHT22;50313;52.894;6.492;2022-10-17T06:50:38;15.00;99.90
60309;DHT22;50313;52.894;6.492;2022-10-17T06:53:03;15.00;99.90
60309;DHT22;50313;52.894;6.492;2022-10-17T06:55:30;15.10;99.90
60309;DHT22;50313;52.894;6.492;2022-10-17T06:57:56;15.10;99.90
60309;DHT22;50313;52.894;6.492;2022-10-17T07:00:22;15.10;99.90
60309;DHT22;50313;52.894;6.492;2022-10-17T07:02:48;15.10;99.90
60309;DHT22;50313;52.894;6.492;2022-10-17T07:05:14;15.20;99.90
60309;DHT22;50313;52.894;6.492;2022-10-17T07:07:40;15.20;99.90
60309;DHT22;50313;52.894;6.492;2022-10-17T07:10:06;15.30;99.90
60309;DHT22;50313;52.894;6.492;2022-10-17T07:12:34;15.30;99.90
60309;DHT22;50313;52.894;6.492;2022-10-17T07:15:01;15.30;99.90
60309;DHT22;50313;52.894;6.492;2022-10-17T07:17:29;15.40;99.90
60309;DHT22;50313;52.894;6.492;2022-10-17T07:19:56;15.40;99.90
60309;DHT22;50313;52.894;6.492;2022-10-17T07:22:22;15.40;99.90
60309;DHT22;50313;52.894;6.492;2022-10-17T07:24:48;15.50;99.90
60309;DHT22;50313;52.894;6.492;2022-10-17T07:27:13;15.50;99.90
60309;DHT22;50313;52.894;6.492;2022-10-17T07:29:39;15.50;99.90
60309;DHT22;50313;52.894;6.492;2022-10-17T07:32:05;15.50;99.90
60309;DHT22;50313;52.894;6.492;2022-10-17T07:34:36;15.50;99.90
60309;DHT22;50313;52.894;6.492;2022-10-17T07:37:02;15.60;99.90
60309;DHT22;50313;52.894;6.492;2022-10-17T07:39:28;15.70;99.90
60309;DHT22;50313;52.894;6.492;2022-10-17T07:41:54;15.80;99.90
60309;DHT22;50313;52.894;6.492;2022-10-17T07:44:20;15.80;99.90
60309;DHT22;50313;52.894;6.492;2022-10-17T07:46:45;15.90;99.90
60309;DHT22;50313;52.894;6.492;2022-10-17T07:49:11;16.00;99.90
60309;DHT22;50313;52.894;6.492;2022-10-17T07:51:37;15.90;99.90
60309;DHT22;50313;52.894;6.492;2022-10-17T07:54:04;16.00;99.90
60309;DHT22;50313;52.894;6.492;2022-10-17T07:56:31;16.10;99.90
60309;DHT22;50313;52.894;6.492;2022-10-17T07:58:57;16.00;99.90
60309;DHT22;50313;52.894;6.492;2022-10-17T08:01:23;16.20;99.90
60309;DHT22;50313;52.894;6.492;2022-10-17T08:03:50;16.20;99.90
60309;DHT22;50313;52.894;6.492;2022-10-17T08:06:16;16.30;99.90
60309;DHT22;50313;52.894;6.492;2022-10-17T08:08:42;16.40;99.90
60309;DHT22;50313;52.894;6.492;2022-10-17T08:11:11;16.50;99.90
60309;DHT22;50313;52.894;6.492;2022-10-17T08:13:37;16.60;99.90
60309;DHT22;50313;52.894;6.492;2022-10-17T08:16:06;16.60;99.90
60309;DHT22;50313;52.894;6.492;2022-10-17T08:18:33;16.60;99.90
60309;DHT22;50313;52.894;6.492;2022-10-17T08:21:00;16.70;99.90
60309;DHT22;50313;52.894;6.492;2022-10-17T08:23:27;16.70;99.90
60309;DHT22;50313;52.894;6.492;2022-10-17T08:25:53;16.70;99.90
60309;DHT22;50313;52.894;6.492;2022-10-17T08:28:19;16.70;99.90
60309;DHT22;50313;52.894;6.492;2022-10-17T08:30:45;16.70;99.90
60309;DHT22;50313;52.894;6.492;2022-10-17T08:33:10;16.60;99.90
60309;DHT22;50313;52.894;6.492;2022-10-17T08:35:36;16.60;99.90
60309;DHT22;50313;52.894;6.492;2022-10-17T08:38:02;16.60;99.90
60309;DHT22;50313;52.894;6.492;2022-10-17T08:40:30;16.60;99.90
60309;DHT22;50313;52.894;6.492;2022-10-17T08:45:57;16.60;99.90
60309;DHT22;50313;52.894;6.492;2022-10-17T08:48:26;16.70;99.90
60309;DHT22;50313;52.894;6.492;2022-10-17T08:51:00;16.70;99.90
60309;DHT22;50313;52.894;6.492;2022-10-17T08:53:48;16.70;99.90
60309;DHT22;50313;52.894;6.492;2022-10-17T08:56:42;16.70;99.90
60309;DHT22;50313;52.894;6.492;2022-10-17T08:59:28;16.70;99.90
60309;DHT22;50313;52.894;6.492;2022-10-17T09:02:02;16.80;99.90
60309;DHT22;50313;52.894;6.492;2022-10-17T09:10:08;16.80;99.90
60309;DHT22;50313;52.894;6.492;2022-10-17T09:13:03;16.80;99.90
60309;DHT22;50313;52.894;6.492;2022-10-17T09:19:03;16.70;99.90
60309;DHT22;50313;52.894;6.492;2022-10-17T09:21:57;16.70;99.90
60309;DHT22;50313;52.894;6.492;2022-10-17T09:24:44;16.80;99.90
60309;DHT22;50313;52.894;6.492;2022-10-17T09:27:19;16.90;99.90
60309;DHT22;50313;52.894;6.492;2022-10-17T09:29:48;16.90;99.90
60309;DHT22;50313;52.894;6.492;2022-10-17T09:32:22;16.90;99.90
60309;DHT22;50313;52.894;6.492;2022-10-17T09:34:48;16.90;99.90
60309;DHT22;50313;52.894;6.492;2022-10-17T09:37:15;16.90;99.90
60309;DHT22;50313;52.894;6.492;2022-10-17T09:39:42;16.90;99.90
60309;DHT22;50313;52.894;6.492;2022-10-17T09:42:14;16.90;99.90
60309;DHT22;50313;52.894;6.492;2022-10-17T09:45:11;16.80;99.90
60309;DHT22;50313;52.894;6.492;2022-10-17T09:50:31;16.80;99.90
60309;DHT22;50313;52.894;6.492;2022-10-17T09:53:28;16.70;99.90
60309;DHT22;50313;52.894;6.492;2022-10-17T09:55:57;16.60;99.90
60309;DHT22;50313;52.894;6.492;2022-10-17T09:58:45;16.60;99.90
60309;DHT22;50313;52.894;6.492;2022-10-17T10:01:15;16.50;99.90
60309;DHT22;50313;52.894;6.492;2022-10-17T10:03:41;16.50;99.90
60309;DHT22;50313;52.894;6.492;2022-10-17T10:06:18;16.40;99.90
60309;DHT22;50313;52.894;6.492;2022-10-17T10:08:55;16.40;99.90
60309;DHT22;50313;52.894;6.492;2022-10-17T10:11:46;16.40;99.90
60309;DHT22;50313;52.894;6.492;2022-10-17T10:14:33;16.40;99.90
60309;DHT22;50313;52.894;6.492;2022-10-17T10:17:01;16.40;99.90
60309;DHT22;50313;52.894;6.492;2022-10-17T10:19:35;16.40;99.90
60309;DHT22;50313;52.894;6.492;2022-10-17T10:22:13;16.40;99.90
60309;DHT22;50313;52.894;6.492;2022-10-17T10:24:39;16.40;99.90
60309;DHT22;50313;52.894;6.492;2022-10-17T10:27:05;16.40;99.90
60309;DHT22;50313;52.894;6.492;2022-10-17T10:29:40;16.50;99.90
60309;DHT22;50313;52.894;6.492;2022-10-17T10:32:07;16.40;99.90
60309;DHT22;50313;52.894;6.492;2022-10-17T10:34:34;16.40;99.90
60309;DHT22;50313;52.894;6.492;2022-10-17T10:37:15;16.40;99.90
60309;DHT22;50313;52.894;6.492;2022-10-17T10:39:47;16.30;99.90
60309;DHT22;50313;52.894;6.492;2022-10-17T10:42:35;16.30;99.90
60309;DHT22;50313;52.894;6.492;2022-10-17T10:45:28;16.30;99.90
60309;DHT22;50313;52.894;6.492;2022-10-17T10:50:41;16.30;99.90
60309;DHT22;50313;52.894;6.492;2022-10-17T10:53:27;16.20;99.90
60309;DHT22;50313;52.894;6.492;2022-10-17T11:01:36;16.30;99.90
60309;DHT22;50313;52.894;6.492;2022-10-17T11:04:39;16.30;99.90
60309;DHT22;50313;52.894;6.492;2022-10-17T11:18:43;16.40;99.90
60309;DHT22;50313;52.894;6.492;2022-10-17T11:21:21;16.30;99.90
60309;DHT22;50313;52.894;6.492;2022-10-17T11:26:52;16.40;99.90
60309;DHT22;50313;52.894;6.492;2022-10-17T11:29:19;16.40;99.90
60309;DHT22;50313;52.894;6.492;2022-10-17T11:31:49;16.40;99.90
60309;DHT22;50313;52.894;6.492;2022-10-17T11:34:24;16.40;99.90
60309;DHT22;50313;52.894;6.492;2022-10-17T11:36:56;16.40;99.90
60309;DHT22;50313;52.894;6.492;2022-10-17T11:39:53;16.40;99.90
60309;DHT22;50313;52.894;6.492;2022-10-17T11:42:32;16.40;99.90
60309;DHT22;50313;52.894;6.492;2022-10-17T11:45:08;16.50;99.90
60309;DHT22;50313;52.894;6.492;2022-10-17T11:47:43;16.50;99.90
60309;DHT22;50313;52.894;6.492;2022-10-17T11:50:50;16.50;99.90
60309;DHT22;50313;52.894;6.492;2022-10-17T11:53:18;16.50;99.90
60309;DHT22;50313;52.894;6.492;2022-10-17T11:55:45;16.60;99.90
60309;DHT22;50313;52.894;6.492;2022-10-17T12:01:23;16.80;99.90
60309;DHT22;50313;52.894;6.492;2022-10-17T12:04:01;16.80;99.90
60309;DHT22;50313;52.894;6.492;2022-10-17T12:09:54;17.00;99.90
60309;DHT22;50313;52.894;6.492;2022-10-17T12:12:27;17.10;99.90
60309;DHT22;50313;52.894;6.492;2022-10-17T12:14:59;17.20;99.90
60309;DHT22;50313;52.894;6.492;2022-10-17T12:17:43;17.20;99.90
60309;DHT22;50313;52.894;6.492;2022-10-17T12:22:59;17.10;99.90
60309;DHT22;50313;52.894;6.492;2022-10-17T12:25:30;17.10;99.90
60309;DHT22;50313;52.894;6.492;2022-10-17T12:31:35;16.90;99.90
60309;DHT22;50313;52.894;6.492;2022-10-17T12:34:13;16.90;99.90
60309;DHT22;50313;52.894;6.492;2022-10-17T12:36:40;16.80;99.90
60309;DHT22;50313;52.894;6.492;2022-10-17T12:49:42;16.70;99.90
60309;DHT22;50313;52.894;6.492;2022-10-17T12:52:17;16.60;99.90
60309;DHT22;50313;52.894;6.492;2022-10-17T12:54:46;16.60;99.90
60309;DHT22;50313;52.894;6.492;2022-10-17T12:57:18;16.60;99.90
60309;DHT22;50313;52.894;6.492;2022-10-17T12:59:51;16.60;99.90
60309;DHT22;50313;52.894;6.492;2022-10-17T13:02:20;16.50;99.90
60309;DHT22;50313;52.894;6.492;2022-10-17T13:04:48;16.50;99.90
60309;DHT22;50313;52.894;6.492;2022-10-17T13:07:20;16.50;99.90
60309;DHT22;50313;52.894;6.492;2022-10-17T13:09:47;16.50;99.90
60309;DHT22;50313;52.894;6.492;2022-10-17T13:12:21;16.50;99.90
60309;DHT22;50313;52.894;6.492;2022-10-17T13:14:50;16.40;99.90
60309;DHT22;50313;52.894;6.492;2022-10-17T13:17:25;16.30;99.90
60309;DHT22;50313;52.894;6.492;2022-10-17T13:19:52;16.20;99.90
60309;DHT22;50313;52.894;6.492;2022-10-17T13:22:30;16.10;99.90
60309;DHT22;50313;52.894;6.492;2022-10-17T13:25:11;16.00;99.90
60309;DHT22;50313;52.894;6.492;2022-10-17T13:27:38;16.00;99.90
60309;DHT22;50313;52.894;6.492;2022-10-17T13:30:28;16.00;99.90
60309;DHT22;50313;52.894;6.492;2022-10-17T13:32:54;15.90;99.90
60309;DHT22;50313;52.894;6.492;2022-10-17T13:35:32;15.90;99.90
60309;DHT22;50313;52.894;6.492;2022-10-17T13:38:01;15.90;99.90
60309;DHT22;50313;52.894;6.492;2022-10-17T13:40:29;15.90;99.90
60309;DHT22;50313;52.894;6.492;2022-10-17T13:42:57;15.90;99.90
60309;DHT22;50313;52.894;6.492;2022-10-17T13:45:31;15.90;99.90
60309;DHT22;50313;52.894;6.492;2022-10-17T13:48:01;15.90;99.90
60309;DHT22;50313;52.894;6.492;2022-10-17T13:50:34;15.90;99.90
60309;DHT22;50313;52.894;6.492;2022-10-17T13:55:33;15.90;99.90
60309;DHT22;50313;52.894;6.492;2022-10-17T13:58:12;15.80;99.90
60309;DHT22;50313;52.894;6.492;2022-10-17T14:00:39;15.80;99.90
60309;DHT22;50313;52.894;6.492;2022-10-17T14:03:04;15.80;99.90
60309;DHT22;50313;52.894;6.492;2022-10-17T14:05:31;15.70;99.90
60309;DHT22;50313;52.894;6.492;2022-10-17T14:08:00;15.70;99.90
60309;DHT22;50313;52.894;6.492;2022-10-17T14:10:35;15.70;99.90
60309;DHT22;50313;52.894;6.492;2022-10-17T14:13:06;15.60;99.90
60309;DHT22;50313;52.894;6.492;2022-10-17T14:15:35;15.60;99.90
60309;DHT22;50313;52.894;6.492;2022-10-17T14:18:04;15.60;99.90
60309;DHT22;50313;52.894;6.492;2022-10-17T14:20:30;15.60;99.90
60309;DHT22;50313;52.894;6.492;2022-10-17T14:22:57;15.50;99.90
60309;DHT22;50313;52.894;6.492;2022-10-17T14:25:35;15.40;99.90
60309;DHT22;50313;52.894;6.492;2022-10-17T14:30:45;15.40;99.90
60309;DHT22;50313;52.894;6.492;2022-10-17T14:33:24;15.40;99.90
60309;DHT22;50313;52.894;6.492;2022-10-17T14:35:52;15.40;99.90
60309;DHT22;50313;52.894;6.492;2022-10-17T14:38:19;15.30;99.90
60309;DHT22;50313;52.894;6.492;2022-10-17T14:43:26;15.30;99.90
60309;DHT22;50313;52.894;6.492;2022-10-17T14:45:56;15.20;99.90
60309;DHT22;50313;52.894;6.492;2022-10-17T14:48:24;15.20;99.90
60309;DHT22;50313;52.894;6.492;2022-10-17T14:53:40;15.20;99.90
60309;DHT22;50313;52.894;6.492;2022-10-17T14:56:34;15.20;99.90
60309;DHT22;50313;52.894;6.492;2022-10-17T14:59:00;15.10;99.90
60309;DHT22;50313;52.894;6.492;2022-10-17T15:01:27;15.10;99.90
60309;DHT22;50313;52.894;6.492;2022-10-17T15:03:53;15.10;99.90
60309;DHT22;50313;52.894;6.492;2022-10-17T15:06:22;15.10;99.90
60309;DHT22;50313;52.894;6.492;2022-10-17T15:08:48;15.10;99.90
60309;DHT22;50313;52.894;6.492;2022-10-17T15:11:14;15.20;99.90
60309;DHT22;50313;52.894;6.492;2022-10-17T15:13:40;15.20;99.90
60309;DHT22;50313;52.894;6.492;2022-10-17T15:16:15;15.20;99.90
60309;DHT22;50313;52.894;6.492;2022-10-17T15:18:42;15.30;99.90
60309;DHT22;50313;52.894;6.492;2022-10-17T15:21:13;15.30;99.90
60309;DHT22;50313;52.894;6.492;2022-10-17T15:23:39;15.40;99.90
60309;DHT22;50313;52.894;6.492;2022-10-17T15:26:24;15.50;99.90
60309;DHT22;50313;52.894;6.492;2022-10-17T15:28:51;15.50;99.90
60309;DHT22;50313;52.894;6.492;2022-10-17T15:31:19;15.50;99.90
60309;DHT22;50313;52.894;6.492;2022-10-17T15:33:45;15.50;99.90
60309;DHT22;50313;52.894;6.492;2022-10-17T15:36:33;15.50;99.90
60309;DHT22;50313;52.894;6.492;2022-10-17T15:39:00;15.40;99.90
60309;DHT22;50313;52.894;6.492;2022-10-17T15:41:28;15.30;99.90
60309;DHT22;50313;52.894;6.492;2022-10-17T15:43:54;15.30;99.90
60309;DHT22;50313;52.894;6.492;2022-10-17T15:46:26;15.20;99.90
60309;DHT22;50313;52.894;6.492;2022-10-17T15:48:53;15.20;99.90
60309;DHT22;50313;52.894;6.492;2022-10-17T15:51:19;15.20;99.90
60309;DHT22;50313;52.894;6.492;2022-10-17T15:53:45;15.10;99.90
60309;DHT22;50313;52.894;6.492;2022-10-17T15:56:33;15.10;99.90
60309;DHT22;50313;52.894;6.492;2022-10-17T15:59:13;15.10;99.90
60309;DHT22;50313;52.894;6.492;2022-10-17T16:01:39;15.10;99.90
60309;DHT22;50313;52.894;6.492;2022-10-17T16:04:07;15.00;99.90
60309;DHT22;50313;52.894;6.492;2022-10-17T16:06:33;15.00;99.90
60309;DHT22;50313;52.894;6.492;2022-10-17T16:08:59;15.00;99.90
60309;DHT22;50313;52.894;6.492;2022-10-17T16:13:59;14.90;99.90
60309;DHT22;50313;52.894;6.492;2022-10-17T16:16:26;15.00;99.90
60309;DHT22;50313;52.894;6.492;2022-10-17T16:18:52;14.90;99.90
60309;DHT22;50313;52.894;6.492;2022-10-17T16:21:19;14.90;99.90
60309;DHT22;50313;52.894;6.492;2022-10-17T16:23:47;14.90;99.90
60309;DHT22;50313;52.894;6.492;2022-10-17T16:26:12;14.90;99.90
60309;DHT22;50313;52.894;6.492;2022-10-17T16:28:42;14.90;99.90
60309;DHT22;50313;52.894;6.492;2022-10-17T16:31:23;14.80;99.90
60309;DHT22;50313;52.894;6.492;2022-10-17T16:33:52;14.80;99.90
60309;DHT22;50313;52.894;6.492;2022-10-17T16:36:19;14.80;99.90
60309;DHT22;50313;52.894;6.492;2022-10-17T16:38:45;14.80;99.90
60309;DHT22;50313;52.894;6.492;2022-10-17T16:41:27;14.70;99.90
60309;DHT22;50313;52.894;6.492;2022-10-17T16:43:57;14.70;99.90
60309;DHT22;50313;52.894;6.492;2022-10-17T16:46:25;14.70;99.90
60309;DHT22;50313;52.894;6.492;2022-10-17T16:48:52;14.70;99.90
60309;DHT22;50313;52.894;6.492;2022-10-17T16:51:19;14.70;99.90
60309;DHT22;50313;52.894;6.492;2022-10-17T16:53:46;14.60;99.90
60309;DHT22;50313;52.894;6.492;2022-10-17T16:56:20;14.60;99.90
60309;DHT22;50313;52.894;6.492;2022-10-17T16:58:47;14.60;99.90
60309;DHT22;50313;52.894;6.492;2022-10-17T17:01:19;14.60;99.90
60309;DHT22;50313;52.894;6.492;2022-10-17T17:03:46;14.50;99.90
60309;DHT22;50313;52.894;6.492;2022-10-17T17:06:20;14.50;99.90
60309;DHT22;50313;52.894;6.492;2022-10-17T17:08:46;14.50;99.90
60309;DHT22;50313;52.894;6.492;2022-10-17T17:11:16;14.50;99.90
60309;DHT22;50313;52.894;6.492;2022-10-17T17:13:42;14.40;99.90
60309;DHT22;50313;52.894;6.492;2022-10-17T17:16:12;14.40;99.90
60309;DHT22;50313;52.894;6.492;2022-10-17T17:18:40;14.40;99.90
60309;DHT22;50313;52.894;6.492;2022-10-17T17:21:07;14.40;99.90
60309;DHT22;50313;52.894;6.492;2022-10-17T17:23:35;14.40;99.90
60309;DHT22;50313;52.894;6.492;2022-10-17T17:26:04;14.30;99.90
60309;DHT22;50313;52.894;6.492;2022-10-17T17:28:31;14.30;99.90
60309;DHT22;50313;52.894;6.492;2022-10-17T17:30:57;14.30;99.90
60309;DHT22;50313;52.894;6.492;2022-10-17T17:33:24;14.30;99.90
60309;DHT22;50313;52.894;6.492;2022-10-17T17:35:58;14.30;99.90